AES weather

Ålesund Airport
Ålesund, Møre og Romsdal, Norway

Public forecast

Using degrees Celsius for public forecast. Weather courtesy of forecast.io.

Current aviation weather report (METAR) for Ålesund Airport

Retrieved 2020/05/30 07:20 UTC (5 minutes ago):

ENAL 300720Z VRB01KT CAVOK 15/07 Q1031

Closest aviation forecast (TAF) to Ålesund Airport

Forecast is more than 12 hours old.

Closest forecast is Molde Airport, 33.4 nm (61.8 km) ENE. Retrieved 2011/03/08 08:45 UTC (9 years ago):

TAF TAF ESDF 0808 FCNO33 ENMI 080800 RRC TAF ENML 080800Z 0809/0818 21015KT 9999 FEW030 BKN050 TEMPO 0809/0818 21022G35KT BECMG 0815/0818 21022G35KT TEMPO 0815/0818 4000 RADZ BKN012